createdAt,value
2019-05-17T00:00:18.263Z,20.02
2019-05-17T00:02:47.055Z,18.65
2019-05-17T00:05:17.774Z,19.10
2019-05-17T00:07:47.559Z,18.35
2019-05-17T00:10:17.282Z,16.55
2019-05-17T00:12:47.167Z,16.85
2019-05-17T00:15:17.139Z,17.05
2019-05-17T00:17:46.960Z,13.90
2019-05-17T00:20:17.434Z,15.85
2019-05-17T00:22:47.196Z,19.30
2019-05-17T00:25:17.651Z,18.35
2019-05-17T00:27:47.391Z,19.52
2019-05-17T00:30:17.627Z,22.50
2019-05-17T00:32:47.573Z,25.05
2019-05-17T00:35:17.782Z,25.37
2019-05-17T00:37:47.040Z,24.82
2019-05-17T00:40:17.403Z,18.85
2019-05-17T00:42:46.594Z,21.73
2019-05-17T00:45:17.599Z,23.05
2019-05-17T00:47:47.010Z,23.55
2019-05-17T00:50:17.178Z,24.37
2019-05-17T00:52:47.530Z,23.67
2019-05-17T00:55:17.479Z,21.93
2019-05-17T00:57:47.500Z,26.02
2019-05-17T01:00:17.245Z,19.80
2019-05-17T01:02:46.814Z,19.20
2019-05-17T01:05:17.108Z,19.50
2019-05-17T01:07:47.122Z,17.77
2019-05-17T01:10:17.442Z,19.65
2019-05-17T01:12:48.058Z,19.55
2019-05-17T01:15:17.697Z,22.52
2019-05-17T01:17:47.388Z,24.95
2019-05-17T01:20:17.355Z,25.02
2019-05-17T01:22:47.449Z,30.02
2019-05-17T01:25:17.176Z,32.17
2019-05-17T01:27:47.451Z,34.03
2019-05-17T01:30:17.751Z,33.35
2019-05-17T01:32:46.779Z,35.58
2019-05-17T01:35:16.813Z,34.03
2019-05-17T01:37:47.550Z,36.95
2019-05-17T01:40:17.636Z,32.03
2019-05-17T01:42:46.896Z,33.88
2019-05-17T01:45:16.636Z,32.48
2019-05-17T01:47:47.495Z,24.32
2019-05-17T01:50:17.480Z,26.85
2019-05-17T01:52:46.540Z,31.33
2019-05-17T01:55:17.150Z,32.28
2019-05-17T01:57:47.557Z,33.53
2019-05-17T02:00:17.614Z,35.70
2019-05-17T02:02:48.255Z,38.30
2019-05-17T02:05:17.544Z,42.78
2019-05-17T02:07:46.553Z,42.58
2019-05-17T02:10:16.845Z,44.73
2019-05-17T02:12:48.728Z,47.60
2019-05-17T02:15:17.220Z,41.13
2019-05-17T02:17:46.798Z,32.63
2019-05-17T02:20:17.124Z,28.80
2019-05-17T02:22:47.473Z,30.32
2019-05-17T02:25:16.844Z,27.00
2019-05-17T02:27:45.475Z,30.23
2019-05-17T02:30:14.849Z,30.97
2019-05-17T02:32:44.622Z,27.32
2019-05-17T02:35:15.107Z,26.80
2019-05-17T02:37:44.251Z,26.90
2019-05-17T02:40:15.060Z,28.85
2019-05-17T02:42:44.337Z,25.85
2019-05-17T02:45:14.828Z,27.77
2019-05-17T02:47:44.045Z,26.42
2019-05-17T02:50:13.829Z,27.87
2019-05-17T02:52:44.090Z,24.85
2019-05-17T02:55:14.873Z,30.08
2019-05-17T02:57:43.850Z,27.05
2019-05-17T03:00:14.115Z,24.92
2019-05-17T03:02:43.829Z,23.05
2019-05-17T03:05:13.636Z,23.85
2019-05-17T03:07:44.062Z,27.80
2019-05-17T03:10:22.652Z,25.12
2019-05-17T03:12:44.358Z,24.98
2019-05-17T03:15:14.457Z,27.98
2019-05-17T03:17:43.801Z,26.82
2019-05-17T03:20:13.851Z,23.52
2019-05-17T03:22:43.971Z,25.15
2019-05-17T03:25:14.010Z,23.98
2019-05-17T03:27:43.409Z,25.12
2019-05-17T03:30:18.706Z,25.35
2019-05-17T03:32:48.023Z,24.85
2019-05-17T03:35:17.884Z,26.62
2019-05-17T03:37:46.643Z,22.32
2019-05-17T03:40:30.578Z,27.13
2019-05-17T03:42:45.781Z,24.10
2019-05-17T03:45:14.926Z,24.18
2019-05-17T03:47:44.309Z,32.90
2019-05-17T03:50:14.135Z,32.25
2019-05-17T03:52:44.653Z,29.80
2019-05-17T03:55:13.888Z,32.88
2019-05-17T03:57:44.259Z,30.80
2019-05-17T04:00:13.885Z,29.27
2019-05-17T04:02:44.306Z,28.20
2019-05-17T04:05:13.564Z,22.87
2019-05-17T04:07:43.390Z,23.83
2019-05-17T04:10:15.176Z,23.98
2019-05-17T04:12:44.382Z,28.35
2019-05-17T04:15:14.959Z,27.30
2019-05-17T04:17:44.275Z,25.92
2019-05-17T04:20:14.488Z,24.47
2019-05-17T04:22:44.387Z,24.43
2019-05-17T04:25:14.417Z,27.42
2019-05-17T04:27:43.749Z,23.25
2019-05-17T04:30:14.583Z,24.45
2019-05-17T04:32:44.101Z,23.60
2019-05-17T04:35:14.020Z,27.73
2019-05-17T04:37:44.622Z,26.90
2019-05-17T04:40:14.414Z,24.55
2019-05-17T04:42:44.483Z,22.42
2019-05-17T04:45:13.665Z,20.23
2019-05-17T04:47:44.372Z,23.52
2019-05-17T04:50:14.217Z,21.85
2019-05-17T04:52:43.571Z,22.58
2019-05-17T04:55:14.050Z,22.13
2019-05-17T04:57:43.895Z,24.55
2019-05-17T05:00:13.799Z,25.08
2019-05-17T05:02:43.977Z,25.08
2019-05-17T05:05:14.615Z,24.95
2019-05-17T05:07:43.850Z,19.67
2019-05-17T05:10:14.258Z,25.37
2019-05-17T05:12:44.205Z,23.57
2019-05-17T05:15:13.793Z,21.42
2019-05-17T05:17:43.119Z,25.15
2019-05-17T05:20:13.290Z,20.30
2019-05-17T05:22:42.800Z,21.52
2019-05-17T05:25:12.945Z,25.72
2019-05-17T05:27:42.690Z,29.05
2019-05-17T05:30:12.156Z,30.90
2019-05-17T05:32:42.605Z,40.35
2019-05-17T05:35:12.298Z,35.60
2019-05-17T05:37:42.244Z,32.40
2019-05-17T05:40:13.105Z,26.27
2019-05-17T05:42:42.823Z,27.52
2019-05-17T05:45:12.645Z,25.72
2019-05-17T05:47:42.872Z,26.60
2019-05-17T05:50:12.875Z,23.92
2019-05-17T05:52:42.551Z,26.80
2019-05-17T05:55:12.440Z,26.52
2019-05-17T05:57:41.916Z,28.90
2019-05-17T06:00:13.489Z,27.80
2019-05-17T06:02:42.493Z,28.30
2019-05-17T06:05:14.975Z,28.20
2019-05-17T06:07:43.593Z,34.13
2019-05-17T06:10:13.265Z,36.93
2019-05-17T06:12:43.435Z,32.95
2019-05-17T06:15:13.805Z,34.78
2019-05-17T06:17:43.240Z,34.05
2019-05-17T06:20:12.308Z,33.90
2019-05-17T06:22:42.825Z,33.85
2019-05-17T06:25:14.750Z,34.40
2019-05-17T06:27:41.654Z,36.80
2019-05-17T06:30:12.644Z,34.08
2019-05-17T06:32:43.429Z,33.67
2019-05-17T06:35:13.102Z,34.78
2019-05-17T06:37:43.123Z,32.30
2019-05-17T06:40:13.427Z,33.75
2019-05-17T06:42:45.202Z,30.57
2019-05-17T06:45:13.048Z,32.08
2019-05-17T06:47:42.720Z,28.80
2019-05-17T06:50:14.258Z,32.80
2019-05-17T06:52:44.644Z,31.65
2019-05-17T06:55:13.339Z,31.37
2019-05-17T06:57:43.647Z,29.82
2019-05-17T07:00:19.699Z,26.87
2019-05-17T07:02:43.467Z,28.40
2019-05-17T07:05:14.119Z,29.45
2019-05-17T07:07:45.880Z,29.50
2019-05-17T07:10:15.140Z,32.33
2019-05-17T07:12:54.995Z,27.05
2019-05-17T07:15:14.307Z,26.68
2019-05-17T07:17:43.039Z,27.85
2019-05-17T07:20:11.728Z,28.90
2019-05-17T07:22:41.050Z,25.08
2019-05-17T07:25:11.081Z,25.68
2019-05-17T07:27:45.345Z,26.00
2019-05-17T07:30:10.765Z,26.85
2019-05-17T07:32:40.568Z,26.50
2019-05-17T07:35:11.121Z,28.20
2019-05-17T07:37:40.603Z,27.25
2019-05-17T07:40:10.893Z,30.65
2019-05-17T07:42:39.951Z,25.05
2019-05-17T07:45:10.192Z,25.25
2019-05-17T07:47:40.508Z,23.75
2019-05-17T07:50:11.214Z,26.17
2019-05-17T07:52:40.531Z,27.45
2019-05-17T07:55:10.904Z,25.72
2019-05-17T07:57:41.248Z,24.95
2019-05-17T08:00:11.078Z,26.10
2019-05-17T08:02:40.261Z,25.97
2019-05-17T08:05:10.463Z,25.77
2019-05-17T08:07:40.678Z,24.80
2019-05-17T08:10:10.892Z,23.42
2019-05-17T08:12:40.641Z,23.47
2019-05-17T08:15:11.039Z,22.87
2019-05-17T08:17:42.608Z,22.67
2019-05-17T08:20:11.760Z,22.70
2019-05-17T08:22:40.344Z,21.60
2019-05-17T08:25:10.395Z,22.77
2019-05-17T08:27:40.523Z,22.32
2019-05-17T08:30:10.654Z,23.27
2019-05-17T08:32:40.206Z,23.27
2019-05-17T08:35:11.265Z,21.70
2019-05-17T08:37:49.738Z,23.05
2019-05-17T08:40:19.969Z,24.85
2019-05-17T08:42:49.865Z,22.82
2019-05-17T08:45:20.763Z,22.75
2019-05-17T08:48:01.600Z,22.42
2019-05-17T08:50:30.131Z,22.30
2019-05-17T08:52:59.943Z,22.40
2019-05-17T08:55:29.920Z,21.45
2019-05-17T08:58:01.096Z,20.27
2019-05-17T09:00:31.422Z,20.95
2019-05-17T09:03:00.463Z,19.23
2019-05-17T09:05:30.225Z,22.70
2019-05-17T09:08:00.423Z,19.95
2019-05-17T09:10:29.978Z,18.02
2019-05-17T09:12:59.685Z,18.30
2019-05-17T09:15:29.647Z,17.82
2019-05-17T09:18:00.303Z,20.43
2019-05-17T09:20:29.628Z,19.70
2019-05-17T09:23:00.045Z,19.35
2019-05-17T09:25:30.301Z,18.20
2019-05-17T09:28:00.684Z,17.62
2019-05-17T09:30:31.324Z,16.95
2019-05-17T09:33:00.505Z,18.62
2019-05-17T09:35:30.054Z,16.70
2019-05-17T09:38:00.555Z,17.60
2019-05-17T09:40:29.319Z,16.20
2019-05-17T09:43:00.386Z,17.75
2019-05-17T09:45:30.615Z,21.52
2019-05-17T09:48:00.709Z,19.37
2019-05-17T09:50:29.357Z,19.30
2019-05-17T09:53:00.038Z,17.75
2019-05-17T09:55:30.075Z,18.27
2019-05-17T09:58:00.295Z,18.70
2019-05-17T10:00:29.694Z,19.10
2019-05-17T10:03:00.047Z,18.55
2019-05-17T10:05:31.145Z,18.75
2019-05-17T10:08:00.704Z,18.35
2019-05-17T10:10:29.327Z,21.00
2019-05-17T10:13:00.167Z,17.80
2019-05-17T10:15:30.095Z,19.48
2019-05-17T10:18:00.599Z,17.30
2019-05-17T10:20:29.363Z,16.05
2019-05-17T10:22:59.610Z,19.12
2019-05-17T10:25:29.488Z,20.92
2019-05-17T10:28:00.367Z,23.77
2019-05-17T10:30:29.928Z,21.37
2019-05-17T10:33:00.014Z,22.58
2019-05-17T10:35:29.549Z,21.37
2019-05-17T10:37:59.635Z,20.20
2019-05-17T10:40:29.876Z,18.50
2019-05-17T10:43:00.761Z,18.70
2019-05-17T10:45:30.522Z,18.65
2019-05-17T10:48:02.056Z,19.05
2019-05-17T10:50:30.943Z,19.05
2019-05-17T10:53:00.502Z,18.27
2019-05-17T10:55:30.191Z,16.80
2019-05-17T10:58:00.462Z,19.12
2019-05-17T11:00:30.485Z,16.97
2019-05-17T11:03:00.360Z,17.17
2019-05-17T11:05:30.767Z,15.85
2019-05-17T11:08:05.740Z,17.00
2019-05-17T11:13:01.994Z,14.78
2019-05-17T11:15:30.843Z,17.35
2019-05-17T11:17:59.392Z,17.82
2019-05-17T11:20:28.330Z,18.27
2019-05-17T11:22:56.859Z,16.52
2019-05-17T11:25:25.705Z,17.48
2019-05-17T11:27:54.231Z,16.27
2019-05-17T11:30:22.703Z,14.60
2019-05-17T11:32:51.206Z,13.65
2019-05-17T11:35:19.750Z,15.60
2019-05-17T11:37:48.272Z,13.72
2019-05-17T11:40:18.347Z,16.48
2019-05-17T11:42:47.151Z,14.60
2019-05-17T11:45:27.179Z,14.05
2019-05-17T11:47:46.238Z,14.15
2019-05-17T11:50:14.950Z,12.93
2019-05-17T11:52:43.473Z,11.83
2019-05-17T11:55:12.207Z,12.40
2019-05-17T11:57:40.748Z,11.78
2019-05-17T12:00:10.597Z,14.15
2019-05-17T12:02:39.128Z,12.58
2019-05-17T12:05:08.032Z,12.20
2019-05-17T12:07:36.551Z,15.25
2019-05-17T12:10:08.585Z,15.45
2019-05-17T12:12:37.476Z,14.20
2019-05-17T12:15:09.978Z,14.87
2019-05-17T12:17:38.746Z,15.15
2019-05-17T12:20:09.593Z,14.58
2019-05-17T12:22:38.123Z,14.03
2019-05-17T12:25:10.148Z,12.95
2019-05-17T12:27:38.658Z,13.72
2019-05-17T12:30:10.690Z,10.23
2019-05-17T12:32:39.271Z,12.15
2019-05-17T12:35:08.574Z,10.68
2019-05-17T12:37:37.472Z,11.73
2019-05-17T12:40:06.438Z,11.80
2019-05-17T12:42:36.116Z,10.82
2019-05-17T12:45:07.367Z,12.28
2019-05-17T12:47:35.908Z,14.53
2019-05-17T12:50:09.635Z,11.43
2019-05-17T12:52:38.416Z,11.83
2019-05-17T12:55:28.948Z,11.63
2019-05-17T12:57:57.707Z,15.30
2019-05-17T13:00:26.308Z,10.72
2019-05-17T13:02:54.782Z,10.55
2019-05-17T13:05:23.762Z,12.95
2019-05-17T13:07:52.303Z,10.40
2019-05-17T13:10:20.819Z,12.23
2019-05-17T13:12:49.639Z,11.35
2019-05-17T13:15:18.364Z,9.60
2019-05-17T13:17:47.228Z,10.80
2019-05-17T13:20:16.215Z,9.90
2019-05-17T13:22:45.029Z,8.88
2019-05-17T13:25:14.155Z,11.28
2019-05-17T13:27:42.903Z,8.40
2019-05-17T13:30:11.899Z,8.90
2019-05-17T13:32:40.183Z,10.43
2019-05-17T13:35:09.491Z,13.55
2019-05-17T13:37:37.968Z,13.10
2019-05-17T13:40:07.698Z,10.98
2019-05-17T13:42:36.253Z,10.08
2019-05-17T13:45:07.272Z,11.68
2019-05-17T13:47:35.744Z,11.68
2019-05-17T13:50:05.532Z,10.65
2019-05-17T13:52:34.011Z,10.18
2019-05-17T13:55:02.471Z,11.50
2019-05-17T13:57:31.204Z,9.28
2019-05-17T13:59:59.651Z,10.75
2019-05-17T14:02:28.131Z,11.85
2019-05-17T14:04:56.961Z,10.00
2019-05-17T14:07:25.507Z,9.58
2019-05-17T14:09:54.236Z,12.15
2019-05-17T14:12:23.132Z,12.73
2019-05-17T14:14:51.926Z,11.05
2019-05-17T14:17:20.474Z,10.18
2019-05-17T14:19:49.260Z,9.20
2019-05-17T14:22:18.092Z,7.95
2019-05-17T14:24:46.539Z,8.23
2019-05-17T14:27:15.075Z,7.50
2019-05-17T14:29:43.605Z,9.55
2019-05-17T14:32:12.726Z,8.23
2019-05-17T14:34:41.559Z,8.20
2019-05-17T14:37:10.675Z,8.23
2019-05-17T14:39:39.432Z,7.03
2019-05-17T14:42:07.975Z,8.38
2019-05-17T14:44:36.435Z,7.47
2019-05-17T14:47:04.980Z,7.28
2019-05-17T14:49:33.427Z,6.53
2019-05-17T14:52:01.901Z,9.13
2019-05-17T14:54:30.355Z,7.72
2019-05-17T14:56:59.148Z,5.83
2019-05-17T14:59:27.935Z,6.25
2019-05-17T15:01:57.363Z,7.22
2019-05-17T15:04:25.911Z,7.33
2019-05-17T15:06:54.375Z,9.25
2019-05-17T15:09:23.677Z,7.37
2019-05-17T15:11:52.224Z,10.05
2019-05-17T15:14:21.107Z,7.05
2019-05-17T15:16:51.232Z,9.05
2019-05-17T15:19:19.777Z,9.30
2019-05-17T15:21:48.608Z,8.15
2019-05-17T15:24:17.509Z,6.95
2019-05-17T15:26:46.036Z,5.78
2019-05-17T15:29:14.593Z,7.62
2019-05-17T15:31:43.131Z,13.80
2019-05-17T15:34:11.657Z,9.85
2019-05-17T15:36:40.443Z,9.00
2019-05-17T15:39:08.918Z,10.10
2019-05-17T15:41:37.727Z,9.80
2019-05-17T15:44:06.268Z,7.87
2019-05-17T15:46:34.995Z,7.60
2019-05-17T15:49:03.795Z,8.40
2019-05-17T15:51:32.243Z,6.62
2019-05-17T15:54:00.716Z,5.92
2019-05-17T15:56:29.174Z,7.25
2019-05-17T15:58:57.720Z,5.00
2019-05-17T16:01:26.248Z,9.35
2019-05-17T16:03:54.712Z,7.67
2019-05-17T16:06:23.502Z,5.45
2019-05-17T16:08:51.972Z,6.65
2019-05-17T16:11:20.423Z,4.67
2019-05-17T16:13:49.168Z,5.22
2019-05-17T16:16:17.691Z,7.65
2019-05-17T16:18:46.163Z,8.05
2019-05-17T16:21:14.620Z,7.28
2019-05-17T16:23:43.158Z,5.35
2019-05-17T16:26:11.897Z,5.10
2019-05-17T16:28:40.694Z,6.92
2019-05-17T16:31:09.593Z,7.40
2019-05-17T16:33:38.137Z,6.40
2019-05-17T16:36:06.655Z,9.33
2019-05-17T16:38:35.132Z,15.65
2019-05-17T16:41:03.589Z,11.03
2019-05-17T16:43:32.135Z,22.73
2019-05-17T16:46:00.852Z,19.45
2019-05-17T16:48:29.391Z,9.75
2019-05-17T16:50:58.191Z,20.92
2019-05-17T16:53:26.999Z,28.98
2019-05-17T16:55:55.879Z,8.10
2019-05-17T16:58:24.327Z,6.85
2019-05-17T17:00:52.867Z,5.45
2019-05-17T17:03:21.646Z,8.30
2019-05-17T17:05:50.183Z,6.67
2019-05-17T17:08:18.626Z,6.03
2019-05-17T17:10:47.095Z,7.75
2019-05-17T17:13:15.543Z,4.87
2019-05-17T17:15:44.383Z,5.37
2019-05-17T17:18:12.836Z,8.25
2019-05-17T17:20:41.307Z,6.85
2019-05-17T17:23:09.755Z,5.97
2019-05-17T17:25:38.368Z,8.98
2019-05-17T17:28:06.831Z,5.70
2019-05-17T17:30:35.706Z,6.15
2019-05-17T17:33:04.230Z,5.83
2019-05-17T17:35:32.979Z,6.00
2019-05-17T17:38:01.802Z,7.33
2019-05-17T17:40:30.674Z,8.08
2019-05-17T17:42:59.459Z,5.20
2019-05-17T17:45:28.071Z,8.05
2019-05-17T17:47:56.795Z,4.12
2019-05-17T17:50:25.347Z,4.72
2019-05-17T17:52:54.227Z,7.28
2019-05-17T17:55:23.020Z,5.62
2019-05-17T17:57:51.817Z,5.62
2019-05-17T18:00:22.224Z,8.25
2019-05-17T18:02:51.088Z,7.65
2019-05-17T18:05:19.605Z,6.20
2019-05-17T18:07:48.055Z,7.28
2019-05-17T18:10:25.987Z,8.13
2019-05-17T18:12:54.836Z,7.97
2019-05-17T18:15:30.431Z,8.23
2019-05-17T18:17:58.886Z,11.53
2019-05-17T18:20:27.358Z,11.00
2019-05-17T18:22:56.116Z,8.85
2019-05-17T18:25:27.681Z,12.33
2019-05-17T18:27:56.127Z,9.68
2019-05-17T18:30:24.629Z,11.90
2019-05-17T18:32:53.439Z,9.40
2019-05-17T18:35:21.979Z,10.72
2019-05-17T18:37:50.716Z,10.40
2019-05-17T18:40:19.516Z,13.45
2019-05-17T18:42:48.403Z,14.73
2019-05-17T18:45:16.951Z,14.38
2019-05-17T18:47:45.472Z,14.40
2019-05-17T18:50:16.145Z,18.92
2019-05-17T18:52:45.108Z,15.30
2019-05-17T18:55:14.019Z,14.58
2019-05-17T18:57:42.807Z,15.80
2019-05-17T19:00:12.012Z,16.35
2019-05-17T19:02:40.554Z,14.83
2019-05-17T19:05:09.839Z,11.25
2019-05-17T19:07:38.314Z,12.37
2019-05-17T19:12:43.660Z,13.43
2019-05-17T19:15:13.588Z,13.40
2019-05-17T19:17:42.055Z,14.45
2019-05-17T19:20:12.383Z,12.75
2019-05-17T19:22:41.299Z,12.35
2019-05-17T19:25:10.519Z,12.65
2019-05-17T19:27:39.255Z,15.35
2019-05-17T19:30:08.872Z,13.15
2019-05-17T19:32:37.335Z,15.65
2019-05-17T19:35:07.687Z,20.08
2019-05-17T19:37:36.486Z,16.02
2019-05-17T19:40:07.902Z,17.67
2019-05-17T19:42:36.727Z,13.75
2019-05-17T19:45:09.574Z,16.60
2019-05-17T19:47:38.123Z,23.65
2019-05-17T19:50:08.646Z,14.78
2019-05-17T19:52:37.428Z,15.85
2019-05-17T19:55:07.215Z,13.98
2019-05-17T19:57:36.227Z,16.90
2019-05-17T20:00:09.840Z,22.35
2019-05-17T20:02:38.832Z,16.40
2019-05-17T20:05:07.687Z,18.75
2019-05-17T20:07:39.001Z,20.55
2019-05-17T20:10:10.719Z,25.62
2019-05-17T20:12:39.188Z,22.30
2019-05-17T20:15:17.290Z,20.72
2019-05-17T20:17:39.371Z,26.57
2019-05-17T20:20:09.015Z,20.97
2019-05-17T20:22:37.606Z,20.62
2019-05-17T20:25:07.203Z,23.67
2019-05-17T20:27:35.959Z,19.40
2019-05-17T20:30:09.678Z,21.80
2019-05-17T20:32:38.213Z,20.03
2019-05-17T20:35:08.560Z,21.30
2019-05-17T20:37:37.095Z,23.50
2019-05-17T20:40:08.188Z,21.68
2019-05-17T20:42:37.024Z,21.37
2019-05-17T20:45:09.311Z,19.70
2019-05-17T20:47:37.938Z,26.42
2019-05-17T20:50:12.910Z,21.35
2019-05-17T20:52:41.721Z,39.13
2019-05-17T20:55:10.916Z,38.78
2019-05-17T20:57:39.703Z,25.60
2019-05-17T21:00:08.701Z,30.45
2019-05-17T21:02:37.432Z,22.25
2019-05-17T21:05:06.927Z,27.62
2019-05-17T21:07:35.483Z,24.27
2019-05-17T21:10:05.384Z,24.60
2019-05-17T21:12:33.919Z,23.92
2019-05-17T21:15:02.726Z,23.20
2019-05-17T21:17:31.580Z,25.72
2019-05-17T21:20:00.031Z,23.90
2019-05-17T21:22:28.507Z,20.32
2019-05-17T21:24:56.988Z,20.12
2019-05-17T21:27:25.531Z,20.00
2019-05-17T21:29:53.977Z,19.82
2019-05-17T21:32:22.477Z,30.85
2019-05-17T21:34:50.999Z,26.55
2019-05-17T21:37:19.531Z,27.20
2019-05-17T21:39:48.370Z,24.12
2019-05-17T21:42:16.835Z,22.87
2019-05-17T21:44:45.391Z,24.30
2019-05-17T21:47:13.836Z,29.30
2019-05-17T21:49:42.307Z,24.20
2019-05-17T21:52:10.764Z,23.85
2019-05-17T21:54:39.589Z,22.15
2019-05-17T21:57:08.040Z,21.35
2019-05-17T21:59:36.517Z,20.27
2019-05-17T22:02:05.107Z,22.00
2019-05-17T22:04:33.940Z,29.35
2019-05-17T22:07:02.388Z,26.55
2019-05-17T22:09:30.862Z,25.37
2019-05-17T22:12:01.239Z,26.37
2019-05-17T22:14:29.711Z,23.92
2019-05-17T22:16:58.175Z,25.43
2019-05-17T22:19:27.008Z,22.58
2019-05-17T22:21:55.538Z,23.62
2019-05-17T22:24:24.295Z,25.65
2019-05-17T22:26:52.819Z,26.68
2019-05-17T22:29:21.367Z,27.07
2019-05-17T22:31:49.827Z,29.00
2019-05-17T22:34:18.736Z,29.18
2019-05-17T22:36:47.526Z,34.25
2019-05-17T22:39:16.446Z,28.65
2019-05-17T22:41:44.947Z,23.90
2019-05-17T22:44:13.698Z,28.10
2019-05-17T22:46:42.157Z,29.50
2019-05-17T22:49:10.994Z,31.42
2019-05-17T22:51:40.391Z,30.80
2019-05-17T22:54:08.936Z,29.07
2019-05-17T22:56:37.429Z,33.15
2019-05-17T22:59:06.255Z,28.00
2019-05-17T23:01:35.048Z,26.00
2019-05-17T23:04:03.586Z,25.85
2019-05-17T23:06:32.327Z,29.80
2019-05-17T23:09:00.803Z,28.90
2019-05-17T23:11:29.251Z,30.80
2019-05-17T23:13:58.095Z,36.38
2019-05-17T23:16:26.894Z,23.42
2019-05-17T23:19:08.158Z,23.98
2019-05-17T23:21:36.766Z,23.20
2019-05-17T23:24:06.056Z,20.50
2019-05-17T23:26:34.956Z,23.32
2019-05-17T23:29:03.571Z,23.55
2019-05-17T23:31:32.329Z,23.90
2019-05-17T23:34:00.855Z,22.20
2019-05-17T23:36:29.331Z,24.82
2019-05-17T23:38:57.860Z,21.33
2019-05-17T23:41:26.688Z,22.50
2019-05-17T23:43:55.138Z,27.58
2019-05-17T23:46:23.607Z,25.45
2019-05-17T23:48:52.343Z,21.62
2019-05-17T23:51:20.889Z,23.30
2019-05-17T23:54:08.683Z,31.12
2019-05-17T23:56:37.155Z,25.05
2019-05-17T23:59:05.940Z,27.45
